createdAt,value
2023-04-09T00:01:08.708Z,92.60
2023-04-09T00:03:37.038Z,92.60
2023-04-09T00:06:05.480Z,93.00
2023-04-09T00:08:33.280Z,92.60
2023-04-09T00:11:01.368Z,92.60
2023-04-09T00:13:38.601Z,92.60
2023-04-09T00:16:09.511Z,92.70
2023-04-09T00:18:37.452Z,92.60
2023-04-09T00:21:05.610Z,92.60
2023-04-09T00:23:33.757Z,92.60
2023-04-09T00:26:01.898Z,92.60
2023-04-09T00:28:29.695Z,92.60
2023-04-09T00:30:57.828Z,92.60
2023-04-09T00:33:27.141Z,92.60
2023-04-09T00:35:54.988Z,92.60
2023-04-09T00:38:22.773Z,92.80
2023-04-09T00:40:51.176Z,92.60
2023-04-09T00:43:19.096Z,92.60
2023-04-09T00:45:46.977Z,92.60
2023-04-09T00:48:16.592Z,92.60
2023-04-09T00:50:45.824Z,92.60
2023-04-09T00:53:14.008Z,92.60
2023-04-09T00:55:42.300Z,92.60
2023-04-09T00:58:10.215Z,92.60
2023-04-09T01:00:38.081Z,92.60
2023-04-09T01:03:07.746Z,92.60
2023-04-09T01:05:45.002Z,92.60
2023-04-09T01:08:22.551Z,92.50
2023-04-09T01:10:59.373Z,92.50
2023-04-09T01:13:35.213Z,92.50
2023-04-09T01:16:04.464Z,92.40
2023-04-09T01:18:36.793Z,92.40
2023-04-09T01:21:10.724Z,92.40
2023-04-09T01:23:47.783Z,92.40
2023-04-09T01:26:23.534Z,92.40
2023-04-09T01:28:55.517Z,92.30
2023-04-09T01:31:31.751Z,92.30
2023-04-09T01:34:00.999Z,92.40
2023-04-09T01:36:32.261Z,92.30
2023-04-09T01:39:02.327Z,92.30
2023-04-09T01:41:33.378Z,92.30
2023-04-09T01:44:04.777Z,92.40
2023-04-09T01:46:34.627Z,92.30
2023-04-09T01:49:03.659Z,92.30
2023-04-09T01:51:33.012Z,92.20
2023-04-09T01:54:01.097Z,92.30
2023-04-09T01:56:28.940Z,92.30
2023-04-09T01:58:56.728Z,92.40
2023-04-09T02:01:34.734Z,92.40
2023-04-09T02:04:05.055Z,92.40
2023-04-09T02:06:39.742Z,92.40
2023-04-09T02:09:10.991Z,92.40
2023-04-09T02:11:41.353Z,92.40
2023-04-09T02:14:11.365Z,92.40
2023-04-09T02:16:42.162Z,92.40
2023-04-09T02:19:09.935Z,92.40
2023-04-09T02:21:37.868Z,92.30
2023-04-09T02:24:05.915Z,92.40
2023-04-09T02:26:33.708Z,92.40
2023-04-09T02:29:01.447Z,92.30
2023-04-09T02:31:29.299Z,92.40
2023-04-09T02:33:58.487Z,92.30
2023-04-09T02:36:27.606Z,92.40
2023-04-09T02:38:55.387Z,92.40
2023-04-09T02:41:24.698Z,92.40
2023-04-09T02:43:52.796Z,92.40
2023-04-09T02:46:20.759Z,92.40
2023-04-09T02:48:48.566Z,92.40
2023-04-09T02:51:17.641Z,92.40
2023-04-09T02:53:45.550Z,92.40
2023-04-09T02:56:13.339Z,92.40
2023-04-09T02:58:41.148Z,92.40
2023-04-09T03:01:08.941Z,92.40
2023-04-09T03:03:37.391Z,92.40
2023-04-09T03:06:05.588Z,92.40
2023-04-09T03:08:34.684Z,92.40
2023-04-09T03:11:02.507Z,92.40
2023-04-09T03:13:30.281Z,92.50
2023-04-09T03:15:58.128Z,92.50
2023-04-09T03:18:26.217Z,92.50
2023-04-09T03:20:54.005Z,92.40
2023-04-09T03:23:21.783Z,92.50
2023-04-09T03:25:50.863Z,92.50
2023-04-09T03:28:18.592Z,92.40
2023-04-09T03:30:46.386Z,92.50
2023-04-09T03:33:14.122Z,92.50
2023-04-09T03:35:43.208Z,92.50
2023-04-09T03:38:11.200Z,92.50
2023-04-09T03:40:38.970Z,92.50
2023-04-09T03:43:08.424Z,92.40
2023-04-09T03:45:36.199Z,92.40
2023-04-09T03:48:03.990Z,92.50
2023-04-09T03:50:31.909Z,92.50
2023-04-09T03:52:59.635Z,92.50
2023-04-09T03:55:28.040Z,92.50
2023-04-09T03:57:56.092Z,92.50
2023-04-09T04:00:25.206Z,92.40
2023-04-09T04:02:53.176Z,92.50
2023-04-09T04:05:23.460Z,92.30
2023-04-09T04:07:51.220Z,92.50
2023-04-09T04:10:19.160Z,92.50
2023-04-09T04:12:47.364Z,92.50
2023-04-09T04:15:15.457Z,92.50
2023-04-09T04:17:44.883Z,92.40
2023-04-09T04:20:13.100Z,92.50
2023-04-09T04:22:40.853Z,92.50
2023-04-09T04:25:09.307Z,92.50
2023-04-09T04:27:37.082Z,92.40
2023-04-09T04:30:06.157Z,92.40
2023-04-09T04:32:33.944Z,92.50
2023-04-09T04:35:03.061Z,92.50
2023-04-09T04:37:30.869Z,92.50
2023-04-09T04:39:58.613Z,92.40
2023-04-09T04:42:26.366Z,92.40
2023-04-09T04:44:54.125Z,92.40
2023-04-09T04:47:21.943Z,92.40
2023-04-09T04:49:49.682Z,92.40
2023-04-09T04:52:18.764Z,92.40
2023-04-09T04:54:46.598Z,92.40
2023-04-09T04:57:14.696Z,92.40
2023-04-09T04:59:42.492Z,92.30
2023-04-09T05:02:10.458Z,92.30
2023-04-09T05:04:38.623Z,92.30
2023-04-09T05:07:07.086Z,92.40
2023-04-09T05:09:36.380Z,92.40
2023-04-09T05:12:04.136Z,92.30
2023-04-09T05:14:31.877Z,92.30
2023-04-09T05:16:59.639Z,92.30
2023-04-09T05:19:27.512Z,92.30
2023-04-09T05:21:55.244Z,92.30
2023-04-09T05:24:22.951Z,92.20
2023-04-09T05:26:52.043Z,92.20
2023-04-09T05:29:19.820Z,92.20
2023-04-09T05:31:47.536Z,92.20
2023-04-09T05:34:15.278Z,92.00
2023-04-09T05:36:43.039Z,92.00
2023-04-09T05:39:10.951Z,92.00
2023-04-09T05:41:38.776Z,92.00
2023-04-09T05:44:08.076Z,92.00
2023-04-09T05:46:35.872Z,92.00
2023-04-09T05:49:03.670Z,92.00
2023-04-09T05:51:31.402Z,92.00
2023-04-09T05:53:59.272Z,92.00
2023-04-09T05:56:27.984Z,92.10
2023-04-09T05:58:56.047Z,92.00
2023-04-09T06:01:25.144Z,92.10
2023-04-09T06:03:55.351Z,92.20
2023-04-09T06:06:24.935Z,92.10
2023-04-09T06:08:52.709Z,92.20
2023-04-09T06:11:21.227Z,92.10
2023-04-09T06:13:48.986Z,92.10
2023-04-09T06:16:16.810Z,92.20
2023-04-09T06:18:49.514Z,92.10
2023-04-09T06:21:17.235Z,92.10
2023-04-09T06:23:45.052Z,92.10
2023-04-09T06:26:12.910Z,92.20
2023-04-09T06:28:40.869Z,92.10
2023-04-09T06:31:08.669Z,92.10
2023-04-09T06:33:36.482Z,92.10
2023-04-09T06:36:06.040Z,92.00
2023-04-09T06:38:33.825Z,92.00
2023-04-09T06:41:01.622Z,92.00
2023-04-09T06:43:29.358Z,92.10
2023-04-09T06:45:57.132Z,92.00
2023-04-09T06:48:24.904Z,92.00
2023-04-09T06:50:52.966Z,92.00
2023-04-09T06:53:22.058Z,92.00
2023-04-09T06:55:49.863Z,92.00
2023-04-09T06:58:17.767Z,92.00
2023-04-09T07:00:45.642Z,92.00
2023-04-09T07:03:13.615Z,92.00
2023-04-09T07:05:41.428Z,91.90
2023-04-09T07:08:09.184Z,92.00
2023-04-09T07:10:38.552Z,91.90
2023-04-09T07:13:06.647Z,92.30
2023-04-09T07:15:34.423Z,91.90
2023-04-09T07:18:02.171Z,91.90
2023-04-09T07:20:30.026Z,92.20
2023-04-09T07:22:57.959Z,91.90
2023-04-09T07:25:26.349Z,91.90
2023-04-09T07:27:55.676Z,91.90
2023-04-09T07:30:23.537Z,91.90
2023-04-09T07:32:51.614Z,91.90
2023-04-09T07:35:19.579Z,91.90
2023-04-09T07:37:47.315Z,91.90
2023-04-09T07:40:15.288Z,91.90
2023-04-09T07:42:43.606Z,91.90
2023-04-09T07:45:12.739Z,91.90
2023-04-09T07:47:41.272Z,92.00
2023-04-09T07:50:10.437Z,91.90
2023-04-09T07:52:38.198Z,92.00
2023-04-09T07:55:06.897Z,92.00
2023-04-09T07:57:34.785Z,92.40
2023-04-09T08:00:03.792Z,92.70
2023-04-09T08:02:33.032Z,92.80
2023-04-09T08:05:00.908Z,92.80
2023-04-09T08:07:28.733Z,92.70
2023-04-09T08:09:56.614Z,92.70
2023-04-09T08:12:24.347Z,93.20
2023-04-09T08:14:52.534Z,93.50
2023-04-09T08:17:20.262Z,93.90
2023-04-09T08:19:49.623Z,94.10
2023-04-09T08:22:17.762Z,94.50
2023-04-09T08:24:45.491Z,94.40
2023-04-09T08:27:13.222Z,94.70
2023-04-09T08:29:42.484Z,94.70
2023-04-09T08:32:10.550Z,94.70
2023-04-09T08:34:38.443Z,94.90
2023-04-09T08:37:07.859Z,94.80
2023-04-09T08:39:36.211Z,95.00
2023-04-09T08:42:06.633Z,95.20
2023-04-09T08:44:34.482Z,95.20
2023-04-09T08:47:02.744Z,95.00
2023-04-09T08:49:30.520Z,95.10
2023-04-09T08:51:58.456Z,95.10
2023-04-09T08:54:27.555Z,95.10
2023-04-09T08:56:57.443Z,95.10
2023-04-09T08:59:26.157Z,95.20
2023-04-09T09:02:08.829Z,95.20
2023-04-09T09:04:46.257Z,95.20
2023-04-09T09:07:14.622Z,95.40
2023-04-09T09:09:54.132Z,95.20
2023-04-09T09:12:39.057Z,95.00
2023-04-09T09:15:25.177Z,95.30
2023-04-09T09:17:55.523Z,95.10
2023-04-09T09:20:24.962Z,95.20
2023-04-09T09:22:55.624Z,95.20
2023-04-09T09:25:26.249Z,95.20
2023-04-09T09:27:55.632Z,95.30
2023-04-09T09:30:25.980Z,95.40
2023-04-09T09:32:54.837Z,95.50
2023-04-09T09:35:23.277Z,95.50
2023-04-09T09:38:02.664Z,95.30
2023-04-09T09:40:31.852Z,95.30
2023-04-09T09:42:59.880Z,95.50
2023-04-09T09:45:28.512Z,95.50
2023-04-09T09:47:56.925Z,95.70
2023-04-09T09:50:26.165Z,95.70
2023-04-09T09:53:06.914Z,95.40
2023-04-09T09:55:40.327Z,95.10
2023-04-09T09:58:13.425Z,94.80
2023-04-09T10:00:41.951Z,94.60
2023-04-09T10:03:15.775Z,94.50
2023-04-09T10:05:43.807Z,94.40
2023-04-09T10:08:12.252Z,94.60
2023-04-09T10:10:42.959Z,94.90
2023-04-09T10:13:14.384Z,94.60
2023-04-09T10:15:43.058Z,94.50
2023-04-09T10:18:10.963Z,94.40
2023-04-09T10:20:44.846Z,94.30
2023-04-09T10:23:22.375Z,94.40
2023-04-09T10:25:51.661Z,94.10
2023-04-09T10:28:19.743Z,94.10
2023-04-09T10:30:48.004Z,93.90
2023-04-09T10:33:19.225Z,94.00
2023-04-09T10:35:48.667Z,93.80
2023-04-09T10:38:16.470Z,93.80
2023-04-09T10:40:49.430Z,93.80
2023-04-09T10:43:20.981Z,93.70
2023-04-09T10:45:53.227Z,93.60
2023-04-09T10:48:21.603Z,93.60
2023-04-09T10:50:52.117Z,93.60
2023-04-09T10:53:24.617Z,93.40
2023-04-09T10:55:53.680Z,93.70
2023-04-09T10:58:22.787Z,93.40
2023-04-09T11:00:52.557Z,93.60
2023-04-09T11:03:23.806Z,93.60
2023-04-09T11:06:01.873Z,93.50
2023-04-09T11:08:31.887Z,93.10
2023-04-09T11:11:01.165Z,93.10
2023-04-09T11:13:32.223Z,92.80
2023-04-09T11:16:01.093Z,92.40
2023-04-09T11:18:31.219Z,92.10
2023-04-09T11:20:59.983Z,92.60
2023-04-09T11:23:28.085Z,92.50
2023-04-09T11:25:56.661Z,92.40
2023-04-09T11:28:25.277Z,92.50
2023-04-09T11:30:54.810Z,92.40
2023-04-09T11:33:22.770Z,92.40
2023-04-09T11:35:51.924Z,92.40
2023-04-09T11:38:19.683Z,92.40
2023-04-09T11:40:49.283Z,92.30
2023-04-09T11:43:18.176Z,92.00
2023-04-09T11:45:48.140Z,91.70
2023-04-09T11:48:19.092Z,91.30
2023-04-09T11:50:47.499Z,91.70
2023-04-09T11:53:19.100Z,91.10
2023-04-09T11:55:50.670Z,91.20
2023-04-09T11:58:18.572Z,91.60
2023-04-09T12:00:46.473Z,91.60
2023-04-09T12:03:15.987Z,91.70
2023-04-09T12:05:51.166Z,91.70
2023-04-09T12:08:24.116Z,91.50
2023-04-09T12:10:53.890Z,91.10
2023-04-09T12:13:22.478Z,91.40
2023-04-09T12:15:51.254Z,91.40
2023-04-09T12:18:19.020Z,90.70
2023-04-09T12:20:49.571Z,91.30
2023-04-09T12:23:18.165Z,91.20
2023-04-09T12:25:47.603Z,90.40
2023-04-09T12:28:18.783Z,91.20
2023-04-09T12:30:48.134Z,91.00
2023-04-09T12:33:15.911Z,91.30
2023-04-09T12:35:43.737Z,91.20
2023-04-09T12:38:12.926Z,91.20
2023-04-09T12:40:41.263Z,91.10
2023-04-09T12:43:08.976Z,91.10
2023-04-09T12:45:36.887Z,91.20
2023-04-09T12:48:04.980Z,91.10
2023-04-09T12:50:33.209Z,91.10
2023-04-09T12:53:01.312Z,89.80
2023-04-09T12:55:30.483Z,89.40
2023-04-09T12:57:58.220Z,89.80
2023-04-09T13:00:25.979Z,90.70
2023-04-09T13:02:55.471Z,90.80
2023-04-09T13:05:23.494Z,90.60
2023-04-09T13:07:51.398Z,91.30
2023-04-09T13:10:19.577Z,90.30
2023-04-09T13:12:48.650Z,89.10
2023-04-09T13:15:16.449Z,89.60
2023-04-09T13:17:44.207Z,89.00
2023-04-09T13:20:12.755Z,88.60
2023-04-09T13:22:40.631Z,88.50
2023-04-09T13:25:08.828Z,88.30
2023-04-09T13:27:36.535Z,89.60
2023-04-09T13:30:06.668Z,88.80
2023-04-09T13:32:34.455Z,88.20
2023-04-09T13:35:02.274Z,87.70
2023-04-09T13:37:29.997Z,88.60
2023-04-09T13:39:57.765Z,88.10
2023-04-09T13:42:25.965Z,88.50
2023-04-09T13:44:53.709Z,87.60
2023-04-09T13:47:23.723Z,87.40
2023-04-09T13:49:51.546Z,86.60
2023-04-09T13:52:19.444Z,86.30
2023-04-09T13:54:47.155Z,86.80
2023-04-09T13:57:14.950Z,85.80
2023-04-09T13:59:43.832Z,86.00
2023-04-09T14:02:12.027Z,86.70
2023-04-09T14:04:41.532Z,88.90
2023-04-09T14:07:09.417Z,89.50
2023-04-09T14:09:37.174Z,88.10
2023-04-09T14:12:05.344Z,87.90
2023-04-09T14:14:33.618Z,89.10
2023-04-09T14:17:01.454Z,86.60
2023-04-09T14:19:29.190Z,86.50
2023-04-09T14:21:58.338Z,86.90
2023-04-09T14:24:26.134Z,88.30
2023-04-09T14:26:53.943Z,85.30
2023-04-09T14:29:22.508Z,86.00
2023-04-09T14:31:50.452Z,86.30
2023-04-09T14:34:18.225Z,86.50
2023-04-09T14:36:45.942Z,84.80
2023-04-09T14:39:15.571Z,85.10
2023-04-09T14:41:43.306Z,84.70
2023-04-09T14:44:11.134Z,84.80
2023-04-09T14:46:38.894Z,84.50
2023-04-09T14:49:06.631Z,84.20
2023-04-09T14:51:34.402Z,84.20
2023-04-09T14:54:02.480Z,85.20
2023-04-09T14:56:32.522Z,85.60
2023-04-09T14:59:00.479Z,88.30
2023-04-09T15:01:28.482Z,85.30
2023-04-09T15:03:56.517Z,84.30
2023-04-09T15:06:24.838Z,85.20
2023-04-09T15:08:52.693Z,83.80
2023-04-09T15:11:22.681Z,84.40
2023-04-09T15:13:52.540Z,83.80
2023-04-09T15:16:26.930Z,83.70
2023-04-09T15:18:57.617Z,84.30
2023-04-09T15:21:25.984Z,83.00
2023-04-09T15:23:54.606Z,83.10
2023-04-09T15:26:22.490Z,83.10
2023-04-09T15:28:53.467Z,82.10
2023-04-09T15:31:21.515Z,82.20
2023-04-09T15:33:50.289Z,81.60
2023-04-09T15:36:18.034Z,81.70
2023-04-09T15:38:45.755Z,87.20
2023-04-09T15:41:13.478Z,83.20
2023-04-09T15:43:41.190Z,82.10
2023-04-09T15:46:11.446Z,82.80
2023-04-09T15:48:39.402Z,81.90
2023-04-09T15:51:07.814Z,82.10
2023-04-09T15:53:35.566Z,82.00
2023-04-09T15:56:03.983Z,82.10
2023-04-09T15:58:32.089Z,81.80
2023-04-09T16:00:59.944Z,81.50
2023-04-09T16:03:29.260Z,81.30
2023-04-09T16:05:57.032Z,81.30
2023-04-09T16:08:26.212Z,81.00
2023-04-09T16:10:53.960Z,80.60
2023-04-09T16:13:22.045Z,80.60
2023-04-09T16:15:50.994Z,80.90
2023-04-09T16:18:18.844Z,81.30
2023-04-09T16:20:48.037Z,81.80
2023-04-09T16:23:15.763Z,81.40
2023-04-09T16:25:43.498Z,81.20
2023-04-09T16:28:11.196Z,80.60
2023-04-09T16:30:38.934Z,80.40
2023-04-09T16:33:08.393Z,80.10
2023-04-09T16:35:39.437Z,80.20
2023-04-09T16:38:09.067Z,80.30
2023-04-09T16:40:37.229Z,80.20
2023-04-09T16:43:04.951Z,80.00
2023-04-09T16:45:32.949Z,80.20
2023-04-09T16:48:00.821Z,80.60
2023-04-09T16:50:28.644Z,80.40
2023-04-09T16:52:56.534Z,80.20
2023-04-09T16:55:25.715Z,80.30
2023-04-09T16:57:55.807Z,80.40
2023-04-09T17:00:23.592Z,80.60
2023-04-09T17:02:51.573Z,80.40
2023-04-09T17:05:19.659Z,80.60
2023-04-09T17:07:47.420Z,80.60
2023-04-09T17:10:15.565Z,80.70
2023-04-09T17:12:45.028Z,80.90
2023-04-09T17:15:12.963Z,81.00
2023-04-09T17:17:41.226Z,80.90
2023-04-09T17:20:09.986Z,80.90
2023-04-09T17:22:39.365Z,81.00
2023-04-09T17:25:10.554Z,81.60
2023-04-09T17:27:38.597Z,82.10
2023-04-09T17:30:09.157Z,82.80
2023-04-09T17:32:37.371Z,83.00
2023-04-09T17:35:07.370Z,83.30
2023-04-09T17:37:35.331Z,83.50
2023-04-09T17:40:03.674Z,83.70
2023-04-09T17:42:35.779Z,83.90
2023-04-09T17:45:04.611Z,84.10
2023-04-09T17:47:33.845Z,84.40
2023-04-09T17:50:04.370Z,84.50
2023-04-09T17:52:36.536Z,84.70
2023-04-09T17:55:07.242Z,84.80
2023-04-09T17:57:35.593Z,85.10
2023-04-09T18:00:05.115Z,85.30
2023-04-09T18:02:35.434Z,85.50
2023-04-09T18:05:04.512Z,85.70
2023-04-09T18:07:34.312Z,85.80
2023-04-09T18:10:02.585Z,86.10
2023-04-09T18:12:30.807Z,86.10
2023-04-09T18:14:58.738Z,86.30
2023-04-09T18:17:27.420Z,86.40
2023-04-09T18:19:58.304Z,86.50
2023-04-09T18:22:26.932Z,86.70
2023-04-09T18:25:00.918Z,86.90
2023-04-09T18:27:33.040Z,86.90
2023-04-09T18:30:03.252Z,87.00
2023-04-09T18:32:32.400Z,87.10
2023-04-09T18:35:01.803Z,87.40
2023-04-09T18:37:31.157Z,87.40
2023-04-09T18:40:01.269Z,87.60
2023-04-09T18:42:30.802Z,87.60
2023-04-09T18:44:58.653Z,87.80
2023-04-09T18:47:26.856Z,87.90
2023-04-09T18:49:54.813Z,87.90
2023-04-09T18:52:24.022Z,88.00
2023-04-09T18:54:51.872Z,88.10
2023-04-09T18:57:20.249Z,88.30
2023-04-09T18:59:48.434Z,88.30
2023-04-09T19:02:16.682Z,88.40
2023-04-09T19:04:45.040Z,88.50
2023-04-09T19:07:12.981Z,88.60
2023-04-09T19:09:44.747Z,88.60
2023-04-09T19:12:12.676Z,88.80
2023-04-09T19:14:41.065Z,88.90
2023-04-09T19:17:08.892Z,88.90
2023-04-09T19:19:37.313Z,89.00
2023-04-09T19:22:05.099Z,89.10
2023-04-09T19:24:34.623Z,89.20
2023-04-09T19:27:09.587Z,89.20
2023-04-09T19:29:37.512Z,89.30
2023-04-09T19:32:05.802Z,89.40
2023-04-09T19:34:33.682Z,89.40
2023-04-09T19:37:10.955Z,89.50
2023-04-09T19:39:42.692Z,89.50
2023-04-09T19:42:11.964Z,89.60
2023-04-09T19:44:39.804Z,89.80
2023-04-09T19:47:07.774Z,89.80
2023-04-09T19:49:35.703Z,90.00
2023-04-09T19:52:06.058Z,90.00
2023-04-09T19:54:34.337Z,90.00
2023-04-09T19:57:02.249Z,90.00
2023-04-09T19:59:36.110Z,90.00
2023-04-09T20:02:04.049Z,90.10
2023-04-09T20:04:31.928Z,90.10
2023-04-09T20:06:59.850Z,90.10
2023-04-09T20:09:28.997Z,90.10
2023-04-09T20:11:58.304Z,90.10
2023-04-09T20:14:27.116Z,90.10
2023-04-09T20:16:56.735Z,90.20
2023-04-09T20:19:24.637Z,90.10
2023-04-09T20:21:52.749Z,90.20
2023-04-09T20:24:22.231Z,90.20
2023-04-09T20:26:50.775Z,90.30
2023-04-09T20:29:19.188Z,90.30
2023-04-09T20:31:47.223Z,90.30
2023-04-09T20:34:16.483Z,90.30
2023-04-09T20:36:44.379Z,90.30
2023-04-09T20:39:12.240Z,90.30
2023-04-09T20:41:40.311Z,90.50
2023-04-09T20:44:08.211Z,90.40
2023-04-09T20:46:36.231Z,90.40
2023-04-09T20:49:04.028Z,90.40
2023-04-09T20:51:33.308Z,90.50
2023-04-09T20:54:01.811Z,90.50
2023-04-09T20:56:30.521Z,90.60
2023-04-09T20:58:58.397Z,90.50
2023-04-09T21:01:27.653Z,90.60
2023-04-09T21:03:55.804Z,90.60
2023-04-09T21:06:23.713Z,90.60
2023-04-09T21:08:54.621Z,90.60
2023-04-09T21:11:22.644Z,90.70
2023-04-09T21:13:54.906Z,90.80
2023-04-09T21:16:24.713Z,90.60
2023-04-09T21:18:53.256Z,90.60
2023-04-09T21:21:21.341Z,90.70
2023-04-09T21:23:49.206Z,91.00
2023-04-09T21:26:18.375Z,90.70
2023-04-09T21:28:50.236Z,90.70
2023-04-09T21:31:18.170Z,90.70
2023-04-09T21:33:46.068Z,90.80
2023-04-09T21:36:14.276Z,90.80
2023-04-09T21:38:42.229Z,90.70
2023-04-09T21:41:10.570Z,90.80
2023-04-09T21:43:40.195Z,90.70
2023-04-09T21:46:08.448Z,90.70
2023-04-09T21:48:37.529Z,90.80
2023-04-09T21:51:10.388Z,90.80
2023-04-09T21:53:38.372Z,90.90
2023-04-09T21:56:07.077Z,90.80
2023-04-09T21:58:34.927Z,90.80
2023-04-09T22:01:04.170Z,90.80
2023-04-09T22:03:32.627Z,90.80
2023-04-09T22:06:00.630Z,90.90
2023-04-09T22:08:29.628Z,91.00
2023-04-09T22:10:57.479Z,90.90
2023-04-09T22:13:25.501Z,90.90
2023-04-09T22:15:53.335Z,90.90
2023-04-09T22:18:22.551Z,90.90
2023-04-09T22:20:50.425Z,90.90
2023-04-09T22:23:18.283Z,91.00
2023-04-09T22:25:46.463Z,90.90
2023-04-09T22:28:14.364Z,90.90
2023-04-09T22:30:42.532Z,91.00
2023-04-09T22:33:10.585Z,91.00
2023-04-09T22:35:39.865Z,91.00
2023-04-09T22:38:07.734Z,91.10
2023-04-09T22:40:35.576Z,91.00
2023-04-09T22:43:03.415Z,91.10
2023-04-09T22:45:32.150Z,91.00
2023-04-09T22:48:00.014Z,91.10
2023-04-09T22:50:28.808Z,91.10
2023-04-09T22:52:57.970Z,91.30
2023-04-09T22:55:26.279Z,91.20
2023-04-09T22:57:54.946Z,91.30
2023-04-09T23:00:23.250Z,91.70
2023-04-09T23:02:51.458Z,91.30
2023-04-09T23:05:19.381Z,91.30
2023-04-09T23:07:48.014Z,91.30
2023-04-09T23:10:17.534Z,91.40
2023-04-09T23:12:45.548Z,91.30
2023-04-09T23:15:13.369Z,91.30
2023-04-09T23:17:41.792Z,91.30
2023-04-09T23:20:12.853Z,91.70
2023-04-09T23:22:40.733Z,91.40
2023-04-09T23:25:09.153Z,91.30
2023-04-09T23:27:38.358Z,91.30
2023-04-09T23:30:07.476Z,91.40
2023-04-09T23:32:35.651Z,91.40
2023-04-09T23:35:03.574Z,91.40
2023-04-09T23:37:31.533Z,91.40
2023-04-09T23:39:59.349Z,91.40
2023-04-09T23:42:32.619Z,91.40
2023-04-09T23:45:03.928Z,91.40
2023-04-09T23:47:33.370Z,91.40
2023-04-09T23:50:04.614Z,91.40
2023-04-09T23:52:32.788Z,91.40
2023-04-09T23:55:00.822Z,91.50
2023-04-09T23:57:28.908Z,91.50
2023-04-09T23:59:56.982Z,91.40
